createdAt,value
2024-05-09T00:02:34.461Z,3.97
2024-05-09T00:05:37.406Z,5.78
2024-05-09T00:08:40.144Z,3.75
2024-05-09T00:11:42.737Z,10.65
2024-05-09T00:14:45.124Z,8.45
2024-05-09T00:17:47.658Z,10.13
2024-05-09T00:20:50.486Z,7.00
2024-05-09T00:23:53.599Z,4.43
2024-05-09T00:26:55.955Z,5.53
2024-05-09T00:29:59.732Z,6.00
2024-05-09T00:33:02.776Z,5.13
2024-05-09T00:36:08.819Z,5.57
2024-05-09T00:39:11.202Z,12.00
2024-05-09T00:42:13.704Z,10.93
2024-05-09T00:45:16.673Z,4.68
2024-05-09T00:48:21.388Z,7.00
2024-05-09T00:51:24.372Z,3.28
2024-05-09T00:54:27.790Z,7.75
2024-05-09T00:57:30.831Z,7.18
2024-05-09T01:00:38.999Z,7.30
2024-05-09T01:03:44.307Z,9.25
2024-05-09T01:06:49.719Z,7.40
2024-05-09T01:09:52.533Z,7.65
2024-05-09T01:12:54.810Z,7.90
2024-05-09T01:15:58.381Z,6.80
2024-05-09T01:19:02.034Z,5.15
2024-05-09T01:22:04.825Z,14.07
2024-05-09T01:25:07.828Z,6.82
2024-05-09T01:28:10.299Z,11.32
2024-05-09T01:31:16.188Z,8.02
2024-05-09T01:34:20.341Z,10.10
2024-05-09T01:37:22.872Z,6.15
2024-05-09T01:40:35.387Z,6.78
2024-05-09T01:43:40.660Z,8.38
2024-05-09T01:46:43.512Z,6.85
2024-05-09T01:49:46.036Z,6.18
2024-05-09T01:52:48.335Z,5.10
2024-05-09T01:55:51.031Z,9.18
2024-05-09T01:58:53.666Z,6.07
2024-05-09T02:01:57.791Z,11.95
2024-05-09T02:05:00.614Z,4.22
2024-05-09T02:08:03.268Z,12.63
2024-05-09T02:11:05.987Z,9.68
2024-05-09T02:14:08.488Z,8.98
2024-05-09T02:17:11.085Z,9.77
2024-05-09T02:20:22.433Z,8.60
2024-05-09T02:23:29.988Z,9.45
2024-05-09T02:26:32.831Z,6.40
2024-05-09T02:29:35.173Z,7.70
2024-05-09T02:32:37.581Z,9.35
2024-05-09T02:35:40.618Z,6.80
2024-05-09T02:38:43.075Z,7.95
2024-05-09T02:41:45.855Z,8.70
2024-05-09T02:44:48.351Z,9.57
2024-05-09T02:47:51.014Z,7.97
2024-05-09T02:50:54.148Z,8.27
2024-05-09T02:53:56.476Z,9.00
2024-05-09T02:56:58.838Z,6.32
2024-05-09T03:00:01.246Z,9.10
2024-05-09T03:03:04.589Z,11.02
2024-05-09T03:06:07.049Z,7.18
2024-05-09T03:09:10.110Z,9.05
2024-05-09T03:12:12.705Z,13.23
2024-05-09T03:15:15.239Z,12.40
2024-05-09T03:18:17.757Z,16.42
2024-05-09T03:21:20.399Z,9.65
2024-05-09T03:24:22.723Z,8.43
2024-05-09T03:27:25.245Z,8.95
2024-05-09T03:30:36.225Z,10.18
2024-05-09T03:33:44.329Z,10.57
2024-05-09T03:36:47.041Z,15.18
2024-05-09T03:39:49.475Z,11.20
2024-05-09T03:42:51.788Z,18.52
2024-05-09T03:45:54.277Z,12.25
2024-05-09T03:48:58.052Z,13.90
2024-05-09T03:52:06.540Z,9.73
2024-05-09T03:55:08.980Z,15.02
2024-05-09T03:58:14.685Z,16.88
2024-05-09T04:01:20.392Z,14.43
2024-05-09T04:04:22.877Z,11.27
2024-05-09T04:07:26.005Z,8.60
2024-05-09T04:10:33.237Z,11.48
2024-05-09T04:13:37.228Z,15.57
2024-05-09T04:16:39.631Z,18.67
2024-05-09T04:19:42.157Z,18.52
2024-05-09T04:22:45.072Z,14.77
2024-05-09T04:25:47.796Z,17.23
2024-05-09T04:28:51.408Z,19.65
2024-05-09T04:31:54.226Z,16.80
2024-05-09T04:34:57.207Z,15.52
2024-05-09T04:38:00.803Z,13.98
2024-05-09T04:41:04.143Z,13.65
2024-05-09T04:44:07.671Z,17.27
2024-05-09T04:47:10.020Z,19.00
2024-05-09T04:50:17.710Z,17.35
2024-05-09T04:53:27.235Z,18.25
2024-05-09T04:56:30.601Z,17.15
2024-05-09T04:59:33.050Z,16.08
2024-05-09T05:02:37.599Z,13.98
2024-05-09T05:05:41.886Z,18.25
2024-05-09T05:08:46.755Z,19.27
2024-05-09T05:11:49.231Z,25.42
2024-05-09T05:14:51.932Z,16.38
2024-05-09T05:17:55.191Z,13.27
2024-05-09T05:20:58.846Z,14.68
2024-05-09T05:24:01.699Z,12.77
2024-05-09T05:27:04.319Z,16.65
2024-05-09T05:30:12.041Z,19.33
2024-05-09T05:33:22.788Z,15.07
2024-05-09T05:36:25.774Z,12.73
2024-05-09T05:39:28.708Z,15.27
2024-05-09T05:42:31.821Z,12.23
2024-05-09T05:45:34.442Z,13.15
2024-05-09T05:48:37.244Z,15.73
2024-05-09T05:51:40.139Z,11.48
2024-05-09T05:54:42.665Z,20.35
2024-05-09T05:57:45.121Z,16.05
2024-05-09T06:00:48.374Z,16.27
2024-05-09T06:03:51.106Z,11.00
2024-05-09T06:06:54.675Z,11.13
2024-05-09T06:09:57.255Z,11.63
2024-05-09T06:12:59.601Z,13.85
2024-05-09T06:16:05.152Z,14.15
2024-05-09T06:19:08.211Z,11.85
2024-05-09T06:22:11.292Z,15.32
2024-05-09T06:25:13.922Z,20.20
2024-05-09T06:28:16.313Z,15.57
2024-05-09T06:31:18.776Z,18.15
2024-05-09T06:34:21.340Z,13.60
2024-05-09T06:37:23.759Z,13.63
2024-05-09T06:40:35.892Z,12.52
2024-05-09T06:43:41.487Z,12.15
2024-05-09T06:46:46.424Z,21.48
2024-05-09T06:49:49.076Z,19.50
2024-05-09T06:52:51.902Z,12.15
2024-05-09T06:55:54.615Z,15.02
2024-05-09T06:58:57.141Z,12.40
2024-05-09T07:01:59.691Z,14.63
2024-05-09T07:05:02.355Z,13.13
2024-05-09T07:08:05.303Z,9.35
2024-05-09T07:11:08.215Z,13.25
2024-05-09T07:14:10.840Z,10.65
2024-05-09T07:17:14.626Z,13.52
2024-05-09T07:20:23.620Z,16.50
2024-05-09T07:23:35.009Z,8.70
2024-05-09T07:26:37.696Z,11.82
2024-05-09T07:29:40.832Z,16.85
2024-05-09T07:32:45.242Z,13.27
2024-05-09T07:35:48.121Z,11.48
2024-05-09T07:38:50.580Z,10.90
2024-05-09T07:41:53.026Z,7.88
2024-05-09T07:45:06.384Z,12.88
2024-05-09T07:53:08.505Z,8.10
2024-05-09T07:54:53.750Z,11.65
2024-05-09T07:57:56.374Z,10.27
2024-05-09T08:00:58.823Z,11.98
2024-05-09T08:04:01.472Z,10.27
2024-05-09T08:07:04.265Z,10.45
2024-05-09T08:10:10.663Z,11.80
2024-05-09T08:16:18.695Z,12.57
2024-05-09T08:19:21.194Z,8.25
2024-05-09T08:22:23.491Z,8.60
2024-05-09T08:25:25.828Z,8.93
2024-05-09T08:28:29.487Z,7.13
2024-05-09T08:31:32.848Z,3.85
2024-05-09T08:34:35.529Z,7.95
2024-05-09T08:37:40.689Z,11.55
2024-05-09T08:40:43.639Z,12.80
2024-05-09T08:43:47.148Z,9.45
2024-05-09T08:46:52.553Z,8.57
2024-05-09T08:49:59.411Z,5.43
2024-05-09T08:53:02.027Z,6.95
2024-05-09T08:56:10.611Z,6.43
2024-05-09T08:59:21.271Z,7.93
2024-05-09T09:02:26.760Z,5.22
2024-05-09T09:05:31.994Z,5.63
2024-05-09T09:08:34.781Z,6.70
2024-05-09T09:11:37.515Z,3.65
2024-05-09T09:14:39.884Z,9.93
2024-05-09T09:17:43.177Z,10.35
2024-05-09T09:20:45.946Z,6.28
2024-05-09T09:23:48.460Z,7.82
2024-05-09T09:26:51.178Z,4.45
2024-05-09T09:33:12.539Z,7.90
2024-05-09T09:36:20.930Z,4.20
2024-05-09T09:39:29.774Z,5.43
2024-05-09T09:45:53.684Z,3.85
2024-05-09T09:48:57.046Z,3.72
2024-05-09T09:52:02.847Z,10.05
2024-05-09T09:55:06.059Z,5.15
2024-05-09T09:58:13.461Z,7.43
2024-05-09T10:01:19.558Z,9.95
2024-05-09T10:04:24.211Z,2.00
2024-05-09T10:07:34.883Z,2.42
2024-05-09T10:10:38.718Z,6.35
2024-05-09T10:13:43.072Z,4.55
2024-05-09T10:16:45.416Z,5.68
2024-05-09T10:19:48.246Z,6.45
2024-05-09T10:22:51.214Z,6.22
2024-05-09T10:26:01.895Z,6.15
2024-05-09T10:29:18.667Z,4.72
2024-05-09T10:32:22.152Z,6.82
2024-05-09T10:35:26.837Z,4.60
2024-05-09T10:38:30.571Z,4.22
2024-05-09T10:41:33.946Z,12.13
2024-05-09T10:44:41.322Z,5.38
2024-05-09T10:47:43.785Z,5.60
2024-05-09T10:50:47.231Z,4.80
2024-05-09T10:53:50.323Z,6.53
2024-05-09T10:56:58.648Z,4.03
2024-05-09T11:00:00.992Z,2.63
2024-05-09T11:03:04.255Z,3.45
2024-05-09T11:06:07.248Z,5.75
2024-05-09T11:09:10.138Z,9.95
2024-05-09T11:12:13.017Z,10.40
2024-05-09T11:15:16.720Z,6.22
2024-05-09T11:18:26.644Z,3.88
2024-05-09T11:21:30.526Z,3.45
2024-05-09T11:24:34.991Z,5.55
2024-05-09T11:27:37.537Z,2.78
2024-05-09T11:30:42.147Z,4.20
2024-05-09T11:33:47.826Z,5.80
2024-05-09T11:36:50.348Z,3.75
2024-05-09T11:39:54.208Z,3.00
2024-05-09T11:42:58.098Z,6.43
2024-05-09T11:46:01.751Z,7.13
2024-05-09T11:49:04.390Z,7.07
2024-05-09T11:52:06.996Z,5.60
2024-05-09T11:55:09.943Z,9.75
2024-05-09T11:58:14.822Z,3.97
2024-05-09T12:01:20.857Z,7.43
2024-05-09T12:04:23.824Z,6.82
2024-05-09T12:07:26.657Z,1.83
2024-05-09T12:10:33.759Z,3.75
2024-05-09T12:13:38.139Z,8.52
2024-05-09T12:16:45.378Z,4.55
2024-05-09T12:19:47.916Z,5.82
2024-05-09T12:22:50.404Z,6.35
2024-05-09T12:25:53.129Z,3.25
2024-05-09T12:28:55.577Z,4.45
2024-05-09T12:31:58.118Z,2.45
2024-05-09T12:35:00.612Z,4.82
2024-05-09T12:38:03.827Z,1.85
2024-05-09T12:41:06.348Z,5.90
2024-05-09T12:44:08.605Z,4.32
2024-05-09T12:47:13.372Z,5.80
2024-05-09T12:50:24.625Z,4.65
2024-05-09T12:53:33.256Z,3.88
2024-05-09T12:56:37.859Z,4.97
2024-05-09T12:59:42.667Z,4.90
2024-05-09T13:02:45.116Z,5.38
2024-05-09T13:05:47.719Z,3.90
2024-05-09T13:08:51.271Z,4.53
2024-05-09T13:11:53.784Z,1.52
2024-05-09T13:15:00.160Z,2.70
2024-05-09T13:18:06.934Z,4.88
2024-05-09T13:21:09.815Z,2.97
2024-05-09T13:24:15.982Z,4.97
2024-05-09T13:27:20.584Z,9.45
2024-05-09T13:30:29.741Z,2.70
2024-05-09T13:33:41.741Z,5.70
2024-05-09T13:36:45.035Z,3.63
2024-05-09T13:39:48.048Z,3.75
2024-05-09T13:42:50.434Z,3.50
2024-05-09T13:45:55.356Z,3.42
2024-05-09T13:49:01.395Z,8.10
2024-05-09T13:52:03.979Z,3.70
2024-05-09T13:55:10.403Z,7.45
2024-05-09T13:58:13.044Z,6.07
2024-05-09T14:01:15.542Z,9.70
2024-05-09T14:04:18.326Z,3.80
2024-05-09T14:07:23.281Z,2.35
2024-05-09T14:10:30.945Z,7.63
2024-05-09T14:13:36.292Z,4.35
2024-05-09T14:16:44.664Z,3.42
2024-05-09T14:22:51.537Z,7.90
2024-05-09T14:25:59.792Z,6.07
2024-05-09T14:29:02.657Z,7.20
2024-05-09T14:32:06.952Z,4.00
2024-05-09T14:35:09.617Z,7.85
2024-05-09T14:38:12.196Z,8.05
2024-05-09T14:41:15.070Z,6.68
2024-05-09T14:44:18.626Z,5.38
2024-05-09T14:47:21.406Z,8.68
2024-05-09T14:50:34.651Z,9.90
2024-05-09T14:53:40.449Z,8.70
2024-05-09T14:56:42.959Z,10.82
2024-05-09T14:59:45.327Z,6.80
2024-05-09T15:02:48.136Z,8.77
2024-05-09T15:05:52.491Z,4.70
2024-05-09T15:08:59.869Z,4.68
2024-05-09T15:12:03.903Z,4.78
2024-05-09T15:15:07.734Z,5.57
2024-05-09T15:18:11.838Z,4.47
2024-05-09T15:21:16.131Z,6.63
2024-05-09T15:24:18.513Z,8.07
2024-05-09T15:27:21.014Z,5.20
2024-05-09T15:33:31.660Z,2.67
2024-05-09T15:36:35.436Z,5.13
2024-05-09T15:39:38.069Z,3.88
2024-05-09T15:42:43.501Z,6.25
2024-05-09T15:45:48.220Z,5.43
2024-05-09T15:48:51.659Z,9.05
2024-05-09T15:51:55.125Z,5.75
2024-05-09T15:54:57.696Z,3.20
2024-05-09T15:58:01.739Z,1.38
2024-05-09T16:01:09.316Z,3.33
2024-05-09T16:04:11.850Z,7.10
2024-05-09T16:07:14.508Z,5.43
2024-05-09T16:10:22.964Z,9.32
2024-05-09T16:13:29.510Z,5.43
2024-05-09T16:16:32.168Z,4.85
2024-05-09T16:19:34.628Z,10.52
2024-05-09T16:22:37.326Z,11.50
2024-05-09T16:25:45.507Z,6.20
2024-05-09T16:28:48.971Z,6.25
2024-05-09T16:31:51.557Z,4.07
2024-05-09T16:34:54.071Z,10.32
2024-05-09T16:37:57.443Z,11.00
2024-05-09T16:41:00.016Z,8.00
2024-05-09T16:44:04.355Z,5.60
2024-05-09T16:47:06.759Z,10.27
2024-05-09T16:50:10.722Z,3.25
2024-05-09T16:53:15.329Z,6.55
2024-05-09T16:56:19.375Z,8.00
2024-05-09T16:59:23.562Z,9.27
2024-05-09T17:02:26.248Z,12.57
2024-05-09T17:05:36.220Z,3.67
2024-05-09T17:08:43.892Z,5.82
2024-05-09T17:11:46.340Z,5.70
2024-05-09T17:14:48.827Z,9.68
2024-05-09T17:17:51.225Z,16.88
2024-05-09T17:20:54.047Z,10.57
2024-05-09T17:23:57.234Z,6.82
2024-05-09T17:27:01.815Z,8.90
2024-05-09T17:30:06.372Z,7.10
2024-05-09T17:36:17.186Z,15.48
2024-05-09T17:39:19.893Z,10.40
2024-05-09T17:42:22.483Z,5.45
2024-05-09T17:45:26.240Z,5.22
2024-05-09T17:48:29.476Z,12.48
2024-05-09T17:51:33.437Z,14.85
2024-05-09T17:54:35.812Z,17.17
2024-05-09T17:57:38.270Z,14.07
2024-05-09T18:00:42.412Z,10.13
2024-05-09T18:03:48.660Z,21.10
2024-05-09T18:06:51.357Z,9.88
2024-05-09T18:09:54.796Z,15.32
2024-05-09T18:12:57.353Z,8.38
2024-05-09T18:16:00.839Z,15.80
2024-05-09T18:19:06.231Z,11.13
2024-05-09T18:22:09.005Z,18.25
2024-05-09T18:25:13.008Z,17.70
2024-05-09T18:28:17.825Z,17.67
2024-05-09T18:31:20.520Z,9.85
2024-05-09T18:34:24.102Z,10.52
2024-05-09T18:37:26.926Z,7.78
2024-05-09T18:40:34.438Z,13.10
2024-05-09T18:43:45.116Z,21.05
2024-05-09T18:46:53.375Z,11.32
2024-05-09T18:49:55.873Z,8.10
2024-05-09T18:52:58.437Z,12.90
2024-05-09T18:56:01.321Z,9.70
2024-05-09T18:59:05.656Z,11.52
2024-05-09T19:02:12.286Z,21.17
2024-05-09T19:05:15.156Z,19.55
2024-05-09T19:08:20.231Z,31.63
2024-05-09T19:11:23.081Z,24.17
2024-05-09T19:14:27.333Z,13.57
2024-05-09T19:17:34.015Z,13.75
2024-05-09T19:20:37.965Z,20.30
2024-05-09T19:23:47.087Z,16.95
2024-05-09T19:26:54.388Z,15.82
2024-05-09T19:29:57.822Z,15.25
2024-05-09T19:33:00.752Z,15.45
2024-05-09T19:36:03.539Z,8.85
2024-05-09T19:39:06.220Z,18.35
2024-05-09T19:42:09.417Z,21.75
2024-05-09T19:45:13.328Z,14.25
2024-05-09T19:48:16.133Z,14.88
2024-05-09T19:51:18.733Z,18.90
2024-05-09T19:54:21.171Z,20.98
2024-05-09T19:57:23.610Z,12.02
2024-05-09T20:00:32.687Z,11.55
2024-05-09T20:03:38.443Z,13.90
2024-05-09T20:06:41.861Z,11.13
2024-05-09T20:09:44.312Z,11.68
2024-05-09T20:12:46.743Z,9.57
2024-05-09T20:15:50.167Z,13.38
2024-05-09T20:18:52.787Z,17.05
2024-05-09T20:21:55.391Z,15.30
2024-05-09T20:24:59.687Z,12.27
2024-05-09T20:28:02.461Z,12.10
2024-05-09T20:31:07.349Z,11.48
2024-05-09T20:34:10.041Z,12.23
2024-05-09T20:37:12.742Z,12.10
2024-05-09T20:40:25.274Z,9.73
2024-05-09T20:43:34.047Z,9.60
2024-05-09T20:46:37.374Z,11.45
2024-05-09T20:49:39.802Z,9.90
2024-05-09T20:52:42.492Z,10.82
2024-05-09T20:55:45.476Z,15.00
2024-05-09T20:58:48.521Z,14.63
2024-05-09T21:01:51.254Z,13.13
2024-05-09T21:04:53.801Z,24.25
2024-05-09T21:07:56.680Z,6.68
2024-05-09T21:10:59.427Z,13.50
2024-05-09T21:14:01.982Z,15.23
2024-05-09T21:17:04.544Z,17.38
2024-05-09T21:20:11.430Z,16.17
2024-05-09T21:23:16.889Z,22.73
2024-05-09T21:26:20.534Z,25.15
2024-05-09T21:29:23.359Z,14.00
2024-05-09T21:32:26.723Z,10.82
2024-05-09T21:35:29.853Z,19.35
2024-05-09T21:38:32.589Z,10.60
2024-05-09T21:41:35.026Z,10.68
2024-05-09T21:44:37.388Z,14.23
2024-05-09T21:47:39.957Z,12.02
2024-05-09T21:50:43.740Z,12.40
2024-05-09T21:53:46.297Z,9.45
2024-05-09T21:56:49.146Z,11.38
2024-05-09T21:59:51.625Z,9.75
2024-05-09T22:02:55.393Z,14.75
2024-05-09T22:05:57.851Z,9.52
2024-05-09T22:09:05.112Z,12.88
2024-05-09T22:12:10.606Z,15.50
2024-05-09T22:15:13.101Z,10.27
2024-05-09T22:18:15.833Z,15.13
2024-05-09T22:21:18.270Z,25.17
2024-05-09T22:24:20.635Z,13.48
2024-05-09T22:27:23.813Z,6.43
2024-05-09T22:30:34.410Z,9.75
2024-05-09T22:33:41.983Z,9.50
2024-05-09T22:36:45.690Z,11.07
2024-05-09T22:39:48.038Z,10.52
2024-05-09T22:42:50.435Z,13.75
2024-05-09T22:45:56.955Z,9.88
2024-05-09T22:48:59.677Z,8.73
2024-05-09T22:52:02.282Z,14.50
2024-05-09T22:55:05.365Z,6.22
2024-05-09T22:58:08.114Z,9.10
2024-05-09T23:01:15.505Z,10.02
2024-05-09T23:04:18.146Z,7.32
2024-05-09T23:07:20.614Z,8.70
2024-05-09T23:10:31.050Z,9.02
2024-05-09T23:13:37.797Z,8.27
2024-05-09T23:16:41.133Z,13.07
2024-05-09T23:19:43.570Z,7.78
2024-05-09T23:22:46.823Z,12.98
2024-05-09T23:25:50.106Z,6.47
2024-05-09T23:28:52.470Z,5.10
2024-05-09T23:31:54.859Z,12.23
2024-05-09T23:34:57.717Z,6.07
2024-05-09T23:38:00.331Z,4.30
2024-05-09T23:41:03.039Z,5.63
2024-05-09T23:44:05.688Z,8.43
2024-05-09T23:47:10.913Z,9.32
2024-05-09T23:50:20.288Z,7.60
2024-05-09T23:53:26.087Z,4.25
2024-05-09T23:56:28.659Z,7.05
2024-05-09T23:59:33.250Z,6.25
